Time;durP1;ratioP1;P1;durP2;ratioP2;P2;SDS_P1;SDS_P2;PMS_P1;PMS_P2;Temp;Humidity;BMP_temperature;BMP_pressure;BME280_temperature;BME280_humidity;BME280_pressure;Samples;Min_cycle;Max_cycle;Signal;HPM_P1;HPM_P2
2021/01/22 00:00:39;;;;;;;0.80;0.52;;;;;;;9.72;43.64;93565.88;5029174;28;20305;-64
2021/01/22 00:03:05;;;;;;;1.17;0.75;;;;;;;9.48;43.36;93531.44;5031515;28;20029;-64
2021/01/22 00:05:30;;;;;;;0.50;0.40;;;;;;;9.27;43.42;93524.41;5029172;28;20033;-64
2021/01/22 00:07:56;;;;;;;0.80;0.40;;;;;;;8.14;44.98;93527.66;5029084;28;20124;-63
2021/01/22 00:10:21;;;;;;;5.13;1.20;;;;;;;8.19;47.04;93665.16;5011531;28;20044;-64
2021/01/22 00:12:46;;;;;;;1.63;1.25;;;;;;;7.12;48.75;93607.50;5029081;28;20195;-63
2021/01/22 00:15:12;;;;;;;1.67;1.58;;;;;;;7.50;48.63;93618.78;5031327;28;20033;-63
2021/01/22 00:17:37;;;;;;;3.33;1.58;;;;;;;7.46;49.19;93654.13;5028778;28;20041;-63
2021/01/22 00:20:04;;;;;;;2.35;1.50;;;;;;;7.53;49.15;93651.75;5029097;28;20033;-63
2021/01/22 00:22:29;;;;;;;2.03;1.20;;;;;;;8.06;47.56;93626.47;5028716;28;20053;-62
2021/01/22 00:24:54;;;;;;;1.70;1.25;;;;;;;8.38;47.01;93658.63;5029066;28;20103;-63
2021/01/22 00:27:20;;;;;;;1.35;1.23;;;;;;;8.20;47.58;93628.84;5012861;28;20056;-63
2021/01/22 00:29:45;;;;;;;2.10;1.60;;;;;;;8.25;46.31;93576.44;5028869;28;20116;-63
2021/01/22 00:32:11;;;;;;;1.52;1.40;;;;;;;8.71;46.04;93609.03;5028149;28;20395;-63
2021/01/22 00:34:36;;;;;;;1.48;1.25;;;;;;;8.49;45.34;93567.03;5010752;28;20087;-63
2021/01/22 00:37:01;;;;;;;1.30;1.20;;;;;;;7.86;46.20;93526.66;5027757;28;20117;-64
2021/01/22 00:39:27;;;;;;;1.30;1.20;;;;;;;7.92;47.14;93610.84;5027966;28;20022;-62
2021/01/22 00:41:52;;;;;;;1.40;1.30;;;;;;;8.27;46.85;93659.00;5030579;28;20031;-65
2021/01/22 00:44:17;;;;;;;1.65;1.10;;;;;;;8.13;46.74;93632.00;5029247;28;20041;-63
2021/01/22 00:46:43;;;;;;;1.35;1.23;;;;;;;7.32;46.72;93473.72;5028422;28;20052;-62
2021/01/22 00:49:08;;;;;;;1.73;1.30;;;;;;;8.47;46.27;93611.63;5028977;28;20041;-63
2021/01/22 00:51:34;;;;;;;1.48;1.38;;;;;;;8.54;45.31;93580.06;5027660;28;20071;-64
2021/01/22 00:53:59;;;;;;;2.40;1.70;;;;;;;8.48;45.77;93576.09;5030812;28;20108;-64
2021/01/22 00:56:24;;;;;;;1.23;1.13;;;;;;;9.03;45.05;93617.25;5011152;28;20099;-63
2021/01/22 00:58:50;;;;;;;1.42;1.15;;;;;;;8.37;45.11;93484.88;5027165;28;20046;-63
2021/01/22 01:01:15;;;;;;;1.48;1.35;;;;;;;9.07;44.49;93567.75;5028577;28;20042;-63
2021/01/22 01:03:40;;;;;;;1.80;1.40;;;;;;;8.32;44.51;93438.91;5028227;28;20045;-63
2021/01/22 01:06:06;;;;;;;1.65;1.48;;;;;;;9.21;44.68;93570.03;5030444;28;20383;-63
2021/01/22 01:08:31;;;;;;;3.17;1.45;;;;;;;9.09;44.85;93565.53;5027919;28;20049;-63
2021/01/22 01:10:57;;;;;;;2.63;1.70;;;;;;;9.03;44.99;93604.00;5028302;28;20079;-62
2021/01/22 01:13:22;;;;;;;2.03;1.80;;;;;;;8.38;45.33;93475.81;5028195;28;20069;-63
2021/01/22 01:15:47;;;;;;;1.63;1.52;;;;;;;9.04;45.17;93561.22;5028315;28;20132;-63
2021/01/22 01:18:13;;;;;;;1.88;1.50;;;;;;;9.38;44.98;93609.63;5029938;28;20060;-63
2021/01/22 01:20:38;;;;;;;1.70;1.60;;;;;;;9.02;44.90;93549.41;5028373;28;20038;-62
2021/01/22 01:23:03;;;;;;;2.70;2.10;;;;;;;9.11;45.14;93564.09;5026788;28;20037;-63
2021/01/22 01:25:29;;;;;;;2.03;1.70;;;;;;;9.09;45.27;93549.63;5028125;28;20048;-63
2021/01/22 01:27:54;;;;;;;4.68;2.15;;;;;;;9.05;45.30;93546.06;5027909;28;20064;-63
2021/01/22 01:30:19;;;;;;;2.60;1.70;;;;;;;9.18;45.02;93574.16;5012418;28;20060;-62
2021/01/22 01:32:45;;;;;;;2.63;2.03;;;;;;;9.17;44.69;93564.66;5028050;28;20036;-63
2021/01/22 01:35:11;;;;;;;1.90;1.75;;;;;;;9.08;44.96;93542.78;5026653;28;20230;-63
2021/01/22 01:37:37;;;;;;;3.40;1.83;;;;;;;9.07;45.11;93538.56;5027942;28;20083;-63
2021/01/22 01:40:03;;;;;;;2.90;2.05;;;;;;;9.36;45.19;93591.38;5028105;28;20049;-64
2021/01/22 01:42:29;;;;;;;1.50;1.40;;;;;;;9.23;44.73;93568.63;5028011;28;20026;-63
2021/01/22 01:44:54;;;;;;;2.60;1.70;;;;;;;9.12;44.98;93551.63;5030187;28;20100;-63
2021/01/22 01:47:20;;;;;;;2.40;1.95;;;;;;;9.08;45.34;93535.59;5027687;28;20068;-64
2021/01/22 01:49:45;;;;;;;2.47;1.98;;;;;;;8.98;45.38;93514.03;5010291;28;20124;-64
2021/01/22 01:52:11;;;;;;;2.35;1.80;;;;;;;9.16;45.38;93533.91;5027930;28;20084;-64
2021/01/22 01:54:37;;;;;;;2.15;1.83;;;;;;;9.39;45.41;93574.03;5027919;28;20022;-64
2021/01/22 01:57:03;;;;;;;1.92;1.73;;;;;;;9.33;45.53;93552.25;5029666;28;20049;-65
2021/01/22 01:59:29;;;;;;;2.30;1.92;;;;;;;9.34;45.38;93545.81;5028080;28;20045;-63
2021/01/22 02:01:56;;;;;;;1.98;1.77;;;;;;;9.33;45.43;93543.53;5027961;28;20029;-64
2021/01/22 02:04:21;;;;;;;2.10;1.67;;;;;;;9.05;45.34;93495.69;5027280;28;20037;-63
2021/01/22 02:06:47;;;;;;;2.42;1.80;;;;;;;9.24;45.40;93524.28;5027487;28;20115;-63
2021/01/22 02:09:12;;;;;;;2.35;1.70;;;;;;;9.29;45.45;93527.47;5012300;28;20030;-63
2021/01/22 02:11:38;;;;;;;1.75;1.60;;;;;;;9.27;45.25;93521.75;5027781;28;20372;-64
2021/01/22 02:14:04;;;;;;;1.75;1.48;;;;;;;9.28;45.49;93525.94;5027897;28;20128;-63
2021/01/22 02:16:31;;;;;;;2.38;1.75;;;;;;;9.47;45.69;93553.75;5027917;28;20490;-63
2021/01/22 02:18:57;;;;;;;3.45;1.92;;;;;;;9.26;45.26;93524.72;5027707;28;20415;-62
2021/01/22 02:21:32;;;;;;;1.50;1.40;;;;;;;9.47;45.25;93554.56;5028805;28;20052;-64
2021/01/22 02:24:07;;;;;;;1.45;1.27;;;;;;;9.37;45.62;93549.72;5015873;28;20018;-63
2021/01/22 02:26:37;;;;;;;1.42;1.33;;;;;;;9.39;45.53;93563.41;5031280;28;20041;-62
2021/01/22 02:29:05;;;;;;;2.50;1.58;;;;;;;9.05;45.65;93516.91;5013804;28;20041;-63
2021/01/22 02:31:35;;;;;;;3.50;1.52;;;;;;;9.13;46.12;93537.25;5011822;28;20038;-64
2021/01/22 02:34:08;;;;;;;1.40;1.30;;;;;;;8.38;47.16;93507.63;5031336;28;20107;-64
2021/01/22 02:36:36;;;;;;;1.55;1.10;;;;;;;8.66;47.67;93574.78;5031125;28;20021;-63
2021/01/22 02:39:03;;;;;;;1.42;1.30;;;;;;;8.49;47.79;93569.66;5033008;28;20018;-62
2021/01/22 02:41:31;;;;;;;1.52;1.33;;;;;;;8.57;47.35;93572.22;5030948;28;20081;-62
2021/01/22 02:44:00;;;;;;;1.80;1.50;;;;;;;8.21;48.32;93558.88;5031332;28;20069;-62
2021/01/22 02:46:27;;;;;;;2.28;1.33;;;;;;;7.97;49.09;93584.16;5013413;28;20053;-63
2021/01/22 02:48:55;;;;;;;1.85;1.42;;;;;;;7.63;50.29;93558.78;5013011;28;20049;-62
2021/01/22 02:51:20;;;;;;;2.67;1.52;;;;;;;7.58;49.39;93532.50;5032732;28;20024;-63
2021/01/22 02:53:45;;;;;;;1.83;1.50;;;;;;;7.69;49.98;93554.81;5012159;28;20030;-64
2021/01/22 02:56:41;;;;;;;2.25;1.50;;;;;;;7.96;49.84;93585.28;5030078;28;20045;-64
2021/01/22 02:59:22;;;;;;;1.55;1.40;;;;;;;7.73;48.83;93489.56;5031238;28;20510;-64
2021/01/22 03:02:09;;;;;;;1.47;1.20;;;;;;;8.68;48.21;93614.22;5030334;28;20091;-63
2021/01/22 03:04:36;;;;;;;1.77;1.23;;;;;;;8.42;48.29;93588.00;5013410;28;20120;-64
2021/01/22 03:07:02;;;;;;;1.83;1.10;;;;;;;8.45;48.83;93630.50;5030214;28;20049;-63
2021/01/22 03:09:29;;;;;;;1.90;1.30;;;;;;;8.65;48.35;93644.03;5011928;28;20021;-63
2021/01/22 03:11:56;;;;;;;1.17;1.08;;;;;;;8.73;48.24;93643.94;5032094;28;20025;-62
2021/01/22 03:14:21;;;;;;;2.47;1.10;;;;;;;8.84;48.06;93636.34;5030712;28;20037;-63
2021/01/22 03:16:49;;;;;;;3.58;1.67;;;;;;;8.88;47.79;93620.56;5030293;28;20041;-62
2021/01/22 03:19:14;;;;;;;1.35;1.23;;;;;;;8.58;48.04;93616.19;5030477;28;20072;-63
2021/01/22 03:21:39;;;;;;;2.58;1.33;;;;;;;8.89;48.05;93632.69;5030151;28;20393;-62
2021/01/22 03:24:06;;;;;;;1.75;1.35;;;;;;;8.44;49.46;93628.19;5014682;28;20048;-63
2021/01/22 03:26:31;;;;;;;1.23;1.13;;;;;;;8.42;50.14;93648.94;5012223;28;20164;-63
2021/01/22 03:28:56;;;;;;;1.70;1.33;;;;;;;8.01;51.05;93630.09;5030082;28;20450;-63
2021/01/22 03:31:22;;;;;;;1.40;1.30;;;;;;;8.38;50.26;93670.00;5029830;28;20124;-64
2021/01/22 03:33:47;;;;;;;1.20;1.10;;;;;;;8.32;50.55;93645.56;5028729;28;20045;-64
2021/01/22 03:36:13;;;;;;;1.75;1.10;;;;;;;8.60;49.91;93676.84;5032156;28;20055;-64
2021/01/22 03:38:38;;;;;;;1.45;1.23;;;;;;;8.08;50.91;93646.22;5029702;28;20036;-63
2021/01/22 03:41:04;;;;;;;1.10;1.05;;;;;;;8.21;50.44;93643.63;5029777;28;20040;-63
2021/01/22 03:43:29;;;;;;;1.33;1.15;;;;;;;7.94;52.17;93666.13;5029724;28;20038;-63
2021/01/22 03:45:54;;;;;;;1.40;1.30;;;;;;;7.68;52.03;93637.19;5029873;28;20188;-64
2021/01/22 03:48:20;;;;;;;1.20;1.05;;;;;;;7.53;52.94;93651.75;5031552;28;20025;-62
2021/01/22 03:50:45;;;;;;;2.13;1.10;;;;;;;7.54;52.91;93635.56;5029792;28;20033;-64
2021/01/22 03:53:11;;;;;;;1.38;1.25;;;;;;;7.65;52.90;93669.59;5011692;28;20034;-65
2021/01/22 03:55:36;;;;;;;1.50;1.40;;;;;;;7.63;52.55;93651.41;5011812;28;20584;-64
2021/01/22 03:58:03;;;;;;;1.13;1.02;;;;;;;7.58;53.13;93634.94;5029452;28;20073;-64
2021/01/22 04:00:33;;;;;;;1.10;1.00;;;;;;;7.55;53.40;93654.84;5029575;28;20029;-64
2021/01/22 04:02:58;;;;;;;1.10;1.00;;;;;;;7.05;54.42;93610.63;5031478;28;20025;-63
2021/01/22 04:05:24;;;;;;;1.50;1.40;;;;;;;7.21;53.82;93608.97;5029406;28;20380;-63
2021/01/22 04:07:49;;;;;;;1.48;1.20;;;;;;;7.09;55.11;93608.13;5029238;28;20068;-62
2021/01/22 04:10:15;;;;;;;1.48;0.85;;;;;;;7.60;54.57;93654.66;5029796;28;20435;-64
2021/01/22 04:12:40;;;;;;;1.17;0.98;;;;;;;7.40;53.85;93582.13;5029332;28;20093;-63
2021/01/22 04:15:06;;;;;;;1.42;1.20;;;;;;;7.73;54.38;93652.88;5031367;28;20167;-65
2021/01/22 04:17:33;;;;;;;1.42;1.13;;;;;;;7.30;54.67;93585.13;5028927;28;20071;-63
2021/01/22 04:19:58;;;;;;;0.75;0.75;;;;;;;7.70;55.69;93630.47;5029191;28;20029;-62
2021/01/22 04:22:24;;;;;;;1.52;1.10;;;;;;;7.61;54.84;93591.94;5029099;28;20046;-62
2021/01/22 04:24:49;;;;;;;1.10;1.00;;;;;;;7.32;55.85;93569.72;5029265;28;20587;-64
2021/01/22 04:27:14;;;;;;;0.95;0.90;;;;;;;7.68;55.30;93602.78;5030629;28;20037;-64
2021/01/22 04:29:40;;;;;;;1.15;0.90;;;;;;;7.94;54.11;93568.94;5028910;28;20038;-63
2021/01/22 04:32:07;;;;;;;1.00;0.90;;;;;;;7.85;55.06;93589.41;5028811;28;20037;-63
2021/01/22 04:34:32;;;;;;;1.15;1.05;;;;;;;7.94;56.11;93616.59;5029107;28;20046;-65
2021/01/22 04:36:58;;;;;;;1.05;0.85;;;;;;;8.00;56.23;93599.41;5011031;28;20403;-64
2021/01/22 04:39:23;;;;;;;1.13;1.00;;;;;;;7.72;57.63;93616.91;5028554;28;20029;-64
2021/01/22 04:41:48;;;;;;;0.88;0.82;;;;;;;8.18;56.17;93615.13;5030679;28;20017;-63
2021/01/22 04:44:14;;;;;;;0.85;0.80;;;;;;;7.52;56.83;93502.81;5028200;28;20120;-63
2021/01/22 04:46:40;;;;;;;0.95;0.80;;;;;;;7.99;55.93;93550.22;5028863;28;20040;-63
2021/01/22 04:49:06;;;;;;;1.25;1.00;;;;;;;7.89;56.20;93531.31;5028734;28;20044;-63
2021/01/22 04:51:36;;;;;;;0.70;0.70;;;;;;;8.63;55.69;93587.94;5028573;28;20053;-63
2021/01/22 04:54:17;;;;;;;1.25;0.93;;;;;;;8.83;55.14;93590.50;5013117;28;20438;-64
2021/01/22 04:56:45;;;;;;;1.50;0.77;;;;;;;8.74;54.84;93571.25;5028599;28;20454;-63
2021/01/22 04:59:35;;;;;;;0.85;0.65;;;;;;;9.11;54.19;93584.56;5010987;28;20042;-63
2021/01/22 05:02:01;;;;;;;0.60;0.60;;;;;;;9.12;53.93;93564.88;5028226;28;20664;-63
2021/01/22 05:04:27;;;;;;;1.05;0.68;;;;;;;9.27;53.57;93558.91;5028667;28;20045;-63
2021/01/22 05:06:52;;;;;;;0.70;0.70;;;;;;;9.42;52.90;93577.88;5028241;28;20038;-63
2021/01/22 05:09:18;;;;;;;2.08;0.93;;;;;;;9.30;53.38;93552.91;5030612;28;20383;-63
2021/01/22 05:11:43;;;;;;;1.58;0.77;;;;;;;9.44;52.92;93560.53;5010585;28;20056;-63
2021/01/22 05:14:09;;;;;;;0.70;0.57;;;;;;;9.41;52.90;93550.56;5028705;28;20419;-63
2021/01/22 05:16:34;;;;;;;2.33;0.85;;;;;;;9.16;52.54;93509.25;5028442;28;20061;-63
2021/01/22 05:19:19;;;;;;;1.25;0.75;;;;;;;9.29;52.71;93540.75;5010513;28;20037;-64
2021/01/22 05:21:45;;;;;;;0.80;0.73;;;;;;;9.35;52.67;93552.69;5028078;28;20042;-63
2021/01/22 05:24:37;;;;;;;0.80;0.60;;;;;;;9.34;53.10;93551.13;5030389;28;20032;-64
2021/01/22 05:27:06;;;;;;;0.95;0.77;;;;;;;9.34;52.64;93550.38;5022721;28;20510;-63
2021/01/22 05:29:36;;;;;;;0.52;0.52;;;;;;;9.20;53.41;93523.41;5010569;28;20068;-63
2021/01/22 05:32:23;;;;;;;1.02;0.60;;;;;;;9.15;53.01;93511.13;5010374;28;20137;-65
2021/01/22 05:34:48;;;;;;;1.10;1.00;;;;;;;9.18;52.74;93509.72;5010469;28;20083;-64
2021/01/22 05:37:13;;;;;;;1.13;0.80;;;;;;;9.31;53.17;93540.41;5027823;28;20430;-63
2021/01/22 05:39:39;;;;;;;0.70;0.70;;;;;;;9.27;52.95;93535.00;5028183;28;20025;-63
2021/01/22 05:42:04;;;;;;;2.30;0.82;;;;;;;9.07;53.32;93527.97;5029713;28;20447;-63
2021/01/22 05:44:30;;;;;;;1.00;0.75;;;;;;;8.96;53.42;93518.91;5010313;28;20532;-63
2021/01/22 05:47:09;;;;;;;1.00;0.77;;;;;;;8.75;53.66;93513.72;5027755;28;20034;-64
2021/01/22 05:49:54;;;;;;;1.52;0.60;;;;;;;8.27;54.50;93467.50;5027918;28;20038;-62
2021/01/22 05:52:21;;;;;;;3.63;0.95;;;;;;;8.21;54.75;93480.19;5027685;28;20147;-63
2021/01/22 05:54:46;;;;;;;1.40;1.00;;;;;;;8.18;55.10;93488.00;5028436;28;20030;-64
2021/01/22 05:57:12;;;;;;;0.93;0.75;;;;;;;8.03;54.57;93481.47;5033681;28;20434;-64
2021/01/22 05:59:37;;;;;;;0.65;0.60;;;;;;;8.07;55.14;93506.97;5032045;28;20037;-63
2021/01/22 06:02:26;;;;;;;1.25;0.65;;;;;;;8.10;55.12;93526.75;5014040;28;20030;-63
2021/01/22 06:05:15;;;;;;;1.10;0.55;;;;;;;8.13;55.25;93534.00;5031994;28;20034;-62
2021/01/22 06:07:45;;;;;;;1.15;0.70;;;;;;;8.08;55.03;93528.94;5031509;28;20524;-63
2021/01/22 06:10:24;;;;;;;1.65;0.88;;;;;;;7.88;55.57;93501.38;5031714;28;20416;-64
2021/01/22 06:12:52;;;;;;;0.88;0.77;;;;;;;7.80;55.25;93492.44;5031491;28;20059;-63
2021/01/22 06:15:20;;;;;;;0.75;0.70;;;;;;;7.81;55.53;93501.94;5033479;28;20045;-64
2021/01/22 06:17:51;;;;;;;0.98;0.80;;;;;;;7.62;55.35;93480.47;5031374;28;20141;-64
2021/01/22 06:20:19;;;;;;;0.70;0.70;;;;;;;7.69;55.68;93527.59;5013084;28;20033;-63
2021/01/22 06:22:53;;;;;;;1.35;1.25;;;;;;;7.55;56.26;93512.75;5030027;28;20045;-64
2021/01/22 06:25:19;;;;;;;1.88;0.80;;;;;;;7.48;56.32;93507.22;5030755;28;20033;-63
2021/01/22 06:27:46;;;;;;;25.65;3.97;;;;;;;7.41;56.60;93499.00;5030920;28;20059;-62
2021/01/22 06:30:13;;;;;;;9.82;2.17;;;;;;;7.21;56.48;93487.31;5015639;28;20394;-65
2021/01/22 06:32:40;;;;;;;3.28;1.27;;;;;;;7.18;56.79;93488.00;5031062;28;20041;-62
2021/01/22 06:35:06;;;;;;;1.63;0.80;;;;;;;7.29;57.21;93512.19;5013302;28;20034;-65
2021/01/22 06:37:33;;;;;;;1.00;0.90;;;;;;;7.17;56.65;93493.59;5012957;28;20034;-62
2021/01/22 06:40:03;;;;;;;2.33;1.17;;;;;;;7.06;57.18;93471.28;5013005;28;20046;-65
2021/01/22 06:42:32;;;;;;;1.90;1.10;;;;;;;6.93;57.29;93458.00;5030849;28;20022;-63
2021/01/22 06:44:57;;;;;;;1.33;1.10;;;;;;;7.29;57.48;93506.88;5033006;28;20017;-63
2021/01/22 06:47:23;;;;;;;1.05;0.90;;;;;;;7.19;57.47;93494.06;5030556;28;20422;-63
2021/01/22 06:49:48;;;;;;;1.20;1.05;;;;;;;7.03;57.14;93473.47;5030767;28;20352;-63
2021/01/22 06:52:13;;;;;;;1.40;1.17;;;;;;;7.16;57.43;93499.97;5030419;28;20053;-62
2021/01/22 06:54:57;;;;;;;1.40;1.30;;;;;;;7.25;58.05;93519.97;5013144;28;20033;-63
2021/01/22 06:57:23;;;;;;;1.30;1.10;;;;;;;7.27;57.10;93517.78;5030607;28;20152;-62
2021/01/22 06:59:48;;;;;;;1.65;1.13;;;;;;;7.08;56.98;93509.53;5032761;28;20048;-62
2021/01/22 07:02:32;;;;;;;2.08;1.10;;;;;;;7.30;56.96;93525.06;5012799;28;20037;-67
2021/01/22 07:04:57;;;;;;;2.08;1.10;;;;;;;7.36;56.86;93525.66;5030856;28;20132;-64
2021/01/22 07:07:45;;;;;;;1.10;1.00;;;;;;;7.42;57.31;93534.16;5028878;28;20121;-65
2021/01/22 07:10:11;;;;;;;1.52;1.10;;;;;;;7.27;57.02;93499.28;5030578;28;20561;-65
2021/01/22 07:12:36;;;;;;;1.02;0.75;;;;;;;7.45;57.00;93533.53;5030438;28;20034;-65
2021/01/22 07:15:22;;;;;;;3.03;2.38;;;;;;;7.66;57.12;93534.28;5033249;28;20021;-65
2021/01/22 07:17:49;;;;;;;1.45;1.35;;;;;;;7.72;56.00;93517.13;5031721;28;20071;-65
2021/01/22 07:20:15;;;;;;;2.38;1.50;;;;;;;7.84;56.16;93510.34;5030902;28;20530;-65
2021/01/22 07:22:59;;;;;;;1.25;1.05;;;;;;;8.00;55.43;93529.81;5031281;28;20133;-66
2021/01/22 07:25:37;;;;;;;1.50;0.98;;;;;;;8.09;55.17;93533.16;5031109;28;20053;-66
2021/01/22 07:28:04;;;;;;;1.80;1.40;;;;;;;8.19;55.08;93548.63;5030707;28;20057;-65
2021/01/22 07:30:39;;;;;;;2.25;1.20;;;;;;;8.20;55.07;93549.41;5031430;28;20033;-65
2021/01/22 07:33:28;;;;;;;1.90;1.13;;;;;;;8.24;54.93;93543.13;5033010;28;20039;-65
2021/01/22 07:36:13;;;;;;;2.20;0.75;;;;;;;8.25;54.66;93549.19;5013206;28;20406;-65
2021/01/22 07:38:40;;;;;;;1.35;1.13;;;;;;;8.04;54.57;93526.19;5031053;28;20526;-65
2021/01/22 07:41:06;;;;;;;1.30;1.00;;;;;;;8.16;55.19;93556.44;5031151;28;20164;-65
2021/01/22 07:43:32;;;;;;;1.27;1.15;;;;;;;7.95;55.17;93540.59;5031102;28;20432;-64
2021/01/22 07:46:06;;;;;;;0.60;0.60;;;;;;;7.65;55.21;93543.34;5031086;28;20123;-66
2021/01/22 07:48:31;;;;;;;1.10;0.68;;;;;;;7.85;54.93;93515.28;5030774;28;20651;-67
2021/01/22 07:50:56;;;;;;;2.85;1.98;;;;;;;8.28;53.24;93541.34;5028849;28;20135;-65
2021/01/22 07:53:22;;;;;;;0.77;0.60;;;;;;;7.83;53.28;93469.88;5028164;28;20068;-65
2021/01/22 07:55:53;;;;;;;1.02;0.80;;;;;;;8.63;52.25;93538.34;5027510;28;20030;-64
2021/01/22 07:58:19;;;;;;;1.10;1.00;;;;;;;8.23;52.15;93464.72;5013132;28;20385;-65
2021/01/22 08:00:46;;;;;;;1.10;0.80;;;;;;;8.98;51.83;93543.22;5013001;28;20071;-65
2021/01/22 08:03:13;;;;;;;1.23;0.60;;;;;;;9.05;51.46;93530.94;5032402;28;20069;-65
2021/01/22 08:05:40;;;;;;;0.98;0.73;;;;;;;9.31;51.71;93546.47;5030534;28;20120;-65
2021/01/22 08:08:19;;;;;;;1.45;0.80;;;;;;;9.55;50.77;93547.56;5012664;28;20037;-66
2021/01/22 08:10:46;;;;;;;0.80;0.68;;;;;;;9.77;50.46;93535.66;5030680;28;20090;-64
2021/01/22 08:13:12;;;;;;;1.98;0.95;;;;;;;9.84;50.37;93515.38;5030300;28;20048;-64
2021/01/22 08:15:37;;;;;;;1.33;1.10;;;;;;;10.19;49.99;93546.69;5012667;28;20029;-64
2021/01/22 08:18:06;;;;;;;2.15;0.90;;;;;;;10.11;49.22;93510.41;5031538;28;20030;-64
2021/01/22 08:20:32;;;;;;;1.10;0.80;;;;;;;10.49;48.93;93548.97;5029441;28;20609;-64
2021/01/22 08:22:58;;;;;;;1.15;0.90;;;;;;;10.44;48.46;93533.25;5030341;28;20041;-63
2021/01/22 08:25:40;;;;;;;1.23;1.08;;;;;;;10.51;48.12;93510.31;5030078;28;20030;-64
2021/01/22 08:28:07;;;;;;;;;;;;;;;10.78;48.24;93539.81;5030033;28;20398;-64
2021/01/22 08:30:33;;;;;;;1.38;1.15;;;;;;;10.79;48.14;93534.13;5012782;28;19920;-64
2021/01/22 08:33:01;;;;;;;1.40;1.30;;;;;;;10.86;47.78;93534.31;5014352;28;20034;-64
2021/01/22 08:35:28;;;;;;;2.53;1.40;;;;;;;10.93;48.04;93537.13;5029906;28;20057;-62
2021/01/22 08:37:55;;;;;;;2.40;1.20;;;;;;;10.87;46.99;93516.47;5029063;28;20050;-65
2021/01/22 08:40:21;;;;;;;1.30;0.65;;;;;;;10.92;47.25;93530.28;5029895;28;20036;-64
2021/01/22 08:43:02;;;;;;;2.28;1.00;;;;;;;10.95;47.07;93523.47;5029874;28;20056;-63
2021/01/22 08:45:28;;;;;;;1.65;1.17;;;;;;;10.98;46.84;93524.69;5011944;28;20072;-64
2021/01/22 08:47:53;;;;;;;1.27;0.90;;;;;;;11.03;46.88;93525.19;5031623;28;20030;-66
2021/01/22 08:50:19;;;;;;;0.93;0.70;;;;;;;11.20;46.22;93524.06;5029516;28;20128;-66
2021/01/22 08:52:45;;;;;;;1.20;0.93;;;;;;;11.28;46.17;93504.47;5029833;28;20108;-67
2021/01/22 08:55:20;;;;;;;1.98;0.70;;;;;;;11.57;44.92;93516.50;5029788;28;20041;-68
2021/01/22 08:58:18;;;;;;;1.45;0.90;;;;;;;11.80;45.05;93503.25;5029302;28;20025;-65
2021/01/22 09:00:43;;;;;;;1.15;0.80;;;;;;;11.94;44.73;93492.13;4985778;28;20117;-64
2021/01/22 09:03:24;;;;;;;1.50;1.08;;;;;;;12.41;43.94;93515.84;5031731;28;20033;-64
2021/01/22 09:05:52;;;;;;;1.85;1.17;;;;;;;12.69;43.87;93520.91;5012327;28;20128;-66
2021/01/22 09:08:23;;;;;;;1.38;1.20;;;;;;;12.90;42.42;93515.13;5011664;28;20132;-65
2021/01/22 09:10:52;;;;;;;1.10;0.90;;;;;;;12.93;41.97;93495.72;5029987;28;20049;-67
2021/01/22 09:13:25;;;;;;;1.27;0.90;;;;;;;12.77;42.75;93518.34;5029684;28;20403;-65
2021/01/22 09:16:03;;;;;;;2.35;1.23;;;;;;;12.87;41.83;93491.06;5029592;28;20029;-65
2021/01/22 09:18:28;;;;;;;1.52;1.00;;;;;;;13.13;41.68;93495.63;5029326;28;20377;-61
2021/01/22 09:20:57;;;;;;;1.38;1.10;;;;;;;13.43;40.98;93525.84;5031408;28;20100;-60
2021/01/22 09:23:22;;;;;;;1.60;1.20;;;;;;;13.29;39.94;93493.59;5029433;28;20450;-62
2021/01/22 09:25:47;;;;;;;1.10;0.90;;;;;;;13.52;40.19;93522.91;5029449;28;20045;-65
2021/01/22 09:28:12;;;;;;;2.70;1.23;;;;;;;13.59;40.18;93496.28;5029497;28;20125;-68
2021/01/22 09:30:38;;;;;;;1.20;1.10;;;;;;;13.61;40.10;93499.34;5033074;28;20479;-66
2021/01/22 09:33:03;;;;;;;1.95;0.90;;;;;;;13.64;39.19;93484.53;5019523;28;20120;-68
2021/01/22 09:35:29;;;;;;;1.60;1.00;;;;;;;13.96;39.15;93512.38;5036162;28;20391;-65
2021/01/22 09:37:55;;;;;;;2.22;1.50;;;;;;;13.77;38.99;93456.44;5035968;28;20502;-67
2021/01/22 09:40:21;;;;;;;1.27;0.93;;;;;;;13.89;38.78;93522.22;5035779;28;20052;-63
2021/01/22 09:42:47;;;;;;;1.92;1.27;;;;;;;14.07;38.70;93514.41;5035965;28;20124;-64
2021/01/22 09:45:14;;;;;;;2.33;0.90;;;;;;;13.98;38.99;93480.72;5038105;28;20112;-64
2021/01/22 09:47:40;;;;;;;4.00;1.20;;;;;;;14.03;38.38;93507.13;5017824;28;20176;-65
2021/01/22 09:50:11;;;;;;;2.15;1.00;;;;;;;13.92;38.49;93498.22;5035431;28;20500;-65
2021/01/22 09:52:38;;;;;;;3.13;1.13;;;;;;;13.55;38.66;93474.09;5035631;28;20041;-65
2021/01/22 09:55:06;;;;;;;1.63;0.93;;;;;;;13.44;38.63;93476.63;5035744;28;20037;-65
2021/01/22 09:57:31;;;;;;;1.85;0.90;;;;;;;13.39;39.30;93495.66;5035646;28;20044;-66
2021/01/22 09:59:57;;;;;;;1.15;0.90;;;;;;;13.22;39.28;93498.84;5037922;28;20029;-65
2021/01/22 10:02:22;;;;;;;1.58;0.90;;;;;;;13.29;39.55;93474.91;5035588;28;20077;-65
2021/01/22 10:04:47;;;;;;;2.47;1.00;;;;;;;13.32;39.32;93479.53;5036122;28;20088;-66
2021/01/22 10:07:13;;;;;;;3.47;0.85;;;;;;;13.27;39.65;93429.88;5035618;28;20414;-66
2021/01/22 10:09:38;;;;;;;2.92;1.30;;;;;;;13.34;39.03;93434.53;5018283;28;20025;-65
2021/01/22 10:12:06;;;;;;;3.20;0.80;;;;;;;13.69;38.81;93466.25;5037598;28;20021;-64
2021/01/22 10:14:32;;;;;;;2.55;0.70;;;;;;;13.80;38.88;93447.69;5035972;28;20040;-65
2021/01/22 10:16:57;;;;;;;3.05;1.10;;;;;;;13.78;38.57;93457.97;5035695;28;20041;-65
2021/01/22 10:19:23;;;;;;;1.55;0.80;;;;;;;13.80;38.79;93434.31;5035782;28;20072;-66
2021/01/22 10:21:48;;;;;;;0.95;0.73;;;;;;;13.85;39.36;93431.31;5035362;28;20491;-66
2021/01/22 10:24:13;;;;;;;1.35;0.80;;;;;;;13.89;39.00;93439.38;5037849;28;20024;-66
2021/01/22 10:26:39;;;;;;;1.77;0.70;;;;;;;13.19;38.71;93334.00;5035669;28;20566;-65
2021/01/22 10:29:04;;;;;;;0.98;0.77;;;;;;;13.56;38.80;93402.75;5035726;28;20099;-66
2021/01/22 10:31:30;;;;;;;1.17;0.90;;;;;;;13.72;38.86;93425.47;5035448;28;20123;-66
2021/01/22 10:33:55;;;;;;;0.95;0.80;;;;;;;13.62;39.00;93412.75;5017896;28;20033;-65
2021/01/22 10:36:21;;;;;;;1.23;0.80;;;;;;;13.62;38.89;93418.09;5019743;28;20080;-66
2021/01/22 10:38:46;;;;;;;1.50;0.95;;;;;;;13.35;39.05;93377.31;5035398;28;20129;-66
2021/01/22 10:41:12;;;;;;;7.00;0.80;;;;;;;13.58;39.20;93405.84;5033888;28;20152;-66
2021/01/22 10:43:38;;;;;;;2.03;0.60;;;;;;;13.41;38.70;93383.09;5031532;28;20037;-66
2021/01/22 10:46:03;;;;;;;3.15;0.70;;;;;;;13.47;39.01;93389.69;5014709;28;20095;-65
2021/01/22 10:48:29;;;;;;;0.60;0.60;;;;;;;13.39;38.91;93364.78;5032191;28;20022;-66
2021/01/22 10:50:55;;;;;;;0.68;0.50;;;;;;;13.55;38.62;93390.53;5033714;28;20022;-67
2021/01/22 10:53:21;;;;;;;1.67;0.73;;;;;;;13.58;38.56;93387.13;5032083;28;20069;-66
2021/01/22 10:55:47;;;;;;;1.45;0.70;;;;;;;13.71;38.45;93399.84;5032403;28;20041;-67
2021/01/22 10:58:12;;;;;;;1.88;0.40;;;;;;;13.46;38.36;93407.63;5031924;28;20222;-66
2021/01/22 11:00:38;;;;;;;1.55;0.45;;;;;;;13.23;39.03;93388.25;5032109;28;20051;-67
2021/01/22 11:03:04;;;;;;;1.85;0.50;;;;;;;13.29;38.65;93376.09;5016254;28;20075;-65
2021/01/22 11:05:29;;;;;;;1.67;0.40;;;;;;;13.46;38.76;93390.78;5032108;28;20461;-67
2021/01/22 11:07:55;;;;;;;1.05;0.57;;;;;;;13.35;38.53;93350.63;5031800;28;20487;-69
2021/01/22 11:10:20;;;;;;;1.08;0.70;;;;;;;13.33;38.60;93349.47;5031743;28;20042;-70
2021/01/22 11:12:47;;;;;;;1.20;0.40;;;;;;;13.37;38.25;93353.72;5031783;28;20064;-70
2021/01/22 11:15:12;;;;;;;0.70;0.68;;;;;;;13.45;38.51;93367.91;5033001;28;20424;-67
2021/01/22 11:17:38;;;;;;;0.65;0.50;;;;;;;13.34;38.57;93329.63;5013945;28;20045;-67
2021/01/22 11:20:04;;;;;;;1.80;0.63;;;;;;;13.43;38.81;93336.22;5031375;28;20091;-66
2021/01/22 11:22:30;;;;;;;1.70;0.73;;;;;;;13.42;38.52;93321.34;5031299;28;20050;-67
2021/01/22 11:24:56;;;;;;;4.28;0.70;;;;;;;13.47;38.41;93334.38;5013703;28;20107;-65
2021/01/22 11:27:22;;;;;;;0.95;0.60;;;;;;;13.26;38.39;93299.44;5033548;28;20038;-65
2021/01/22 11:29:47;;;;;;;2.20;0.57;;;;;;;13.63;38.30;93358.19;5031982;28;20045;-64
2021/01/22 11:32:13;;;;;;;1.23;0.43;;;;;;;13.21;38.31;93286.38;5031546;28;20164;-67
2021/01/22 11:34:38;;;;;;;1.48;0.60;;;;;;;13.46;38.17;93324.03;5031600;28;20499;-68
2021/01/22 11:37:04;;;;;;;2.40;0.60;;;;;;;13.58;38.15;93323.78;5031129;28;20515;-67
2021/01/22 11:39:30;;;;;;;1.80;0.40;;;;;;;13.65;37.79;93347.88;5031334;28;20021;-63
2021/01/22 11:41:56;;;;;;;0.40;0.40;;;;;;;13.64;37.92;93348.25;5033277;28;20028;-65